Time;durP1;ratioP1;P1;durP2;ratioP2;P2;SDS_P1;SDS_P2;PMS_P1;PMS_P2;Temp;Humidity;BMP_temperature;BMP_pressure;BME280_temperature;BME280_humidity;BME280_pressure;Samples;Min_cycle;Max_cycle;Signal;HPM_P1;HPM_P2
2023/09/29 00:01:29;;;;;;;8.15;2.88;;;16.10;99.90;;;;;;5022210;28;20042;-73
2023/09/29 00:03:55;;;;;;;6.47;2.10;;;16.10;99.90;;;;;;5038261;28;20167;-73
2023/09/29 00:06:20;;;;;;;5.75;2.00;;;16.00;99.90;;;;;;5023782;28;20121;-73
2023/09/29 00:08:46;;;;;;;10.35;2.35;;;16.00;99.90;;;;;;5008477;28;20037;-73
2023/09/29 00:11:15;;;;;;;10.05;2.45;;;16.00;99.90;;;;;;5005516;28;20037;-73
2023/09/29 00:13:41;;;;;;;9.35;2.70;;;16.00;99.90;;;;;;5023006;28;20045;-73
2023/09/29 00:16:07;;;;;;;6.60;2.00;;;16.10;99.90;;;;;;5024048;28;20502;-73
2023/09/29 00:18:33;;;;;;;6.85;3.00;;;16.00;99.90;;;;;;5024562;28;20099;-73
2023/09/29 00:20:59;;;;;;;8.18;2.05;;;16.00;99.90;;;;;;5020222;28;20060;-73
2023/09/29 00:23:24;;;;;;;10.43;3.00;;;16.00;99.90;;;;;;5022885;28;20045;-73
2023/09/29 00:25:50;;;;;;;6.22;2.17;;;16.00;99.90;;;;;;5021330;28;20040;-73
2023/09/29 00:28:16;;;;;;;8.93;2.83;;;16.00;99.90;;;;;;5038190;28;20450;-73
2023/09/29 00:30:42;;;;;;;11.77;2.90;;;16.00;99.90;;;;;;5022231;28;20493;-73
2023/09/29 00:33:08;;;;;;;10.50;2.78;;;16.00;99.90;;;;;;5005201;28;20060;-73
2023/09/29 00:35:34;;;;;;;7.70;2.80;;;16.00;99.90;;;;;;5020333;28;20511;-73
2023/09/29 00:38:00;;;;;;;8.50;2.50;;;16.00;99.90;;;;;;5007484;28;20044;-73
2023/09/29 00:40:27;;;;;;;6.28;2.67;;;16.00;99.90;;;;;;5024469;28;20038;-73
2023/09/29 00:42:53;;;;;;;10.90;2.70;;;16.00;99.90;;;;;;5024105;28;20399;-73
2023/09/29 00:45:23;;;;;;;9.27;2.55;;;16.00;99.90;;;;;;5024830;28;20052;-73
2023/09/29 00:47:51;;;;;;;12.63;2.83;;;16.00;99.90;;;;;;5025238;28;20130;-73
2023/09/29 00:50:19;;;;;;;7.75;2.55;;;16.00;99.90;;;;;;5029991;28;20072;-73
2023/09/29 00:52:47;;;;;;;8.32;2.55;;;16.00;99.90;;;;;;5042415;28;20033;-73
2023/09/29 00:55:13;;;;;;;6.93;2.67;;;16.00;99.90;;;;;;5026290;28;20201;-73
2023/09/29 00:57:40;;;;;;;8.13;2.72;;;16.00;99.90;;;;;;5026394;28;20061;-73
2023/09/29 01:00:29;;;;;;;8.75;2.53;;;16.00;99.90;;;;;;5026606;28;20052;-73
2023/09/29 01:02:56;;;;;;;13.48;2.65;;;16.00;99.90;;;;;;5008078;28;20061;-73
2023/09/29 01:05:22;;;;;;;7.80;2.85;;;16.10;99.90;;;;;;5027981;28;20033;-73
2023/09/29 01:07:48;;;;;;;6.70;2.40;;;16.00;99.90;;;;;;5010737;28;20041;-73
2023/09/29 01:10:13;;;;;;;8.05;2.28;;;16.00;99.90;;;;;;5026320;28;20033;-73
2023/09/29 01:12:40;;;;;;;5.03;2.63;;;16.00;99.90;;;;;;5025876;28;20046;-73
2023/09/29 01:15:07;;;;;;;6.88;2.42;;;16.00;99.90;;;;;;5027213;28;20033;-73
2023/09/29 01:17:33;;;;;;;4.95;2.40;;;16.00;99.90;;;;;;5009086;28;20399;-73
2023/09/29 01:19:58;;;;;;;10.20;2.47;;;16.00;99.90;;;;;;5024875;28;20042;-73
2023/09/29 01:22:24;;;;;;;6.20;2.65;;;16.00;99.90;;;;;;5010322;28;20037;-73
2023/09/29 01:24:49;;;;;;;7.80;2.90;;;16.00;99.90;;;;;;5025490;28;20037;-73
2023/09/29 01:27:15;;;;;;;7.50;2.50;;;16.00;99.90;;;;;;5024155;28;20084;-73
2023/09/29 01:29:44;;;;;;;9.38;2.75;;;15.90;99.90;;;;;;5022417;28;20044;-73
2023/09/29 01:32:14;;;;;;;12.75;3.28;;;16.00;99.90;;;;;;5023298;28;20038;-73
2023/09/29 01:34:39;;;;;;;6.55;2.42;;;15.90;99.90;;;;;;5023626;28;21407;-73
2023/09/29 01:37:05;;;;;;;9.27;2.38;;;16.00;99.90;;;;;;5007037;28;20049;-73
2023/09/29 01:39:31;;;;;;;8.88;3.10;;;16.00;99.90;;;;;;5023863;28;20506;-73
2023/09/29 01:41:56;;;;;;;8.02;2.20;;;15.90;99.90;;;;;;5025691;28;20085;-73
2023/09/29 01:44:22;;;;;;;9.55;2.70;;;16.00;99.90;;;;;;5009152;28;20065;-73
2023/09/29 01:46:49;;;;;;;6.03;2.42;;;15.90;99.90;;;;;;5004606;28;20037;-73
2023/09/29 01:49:15;;;;;;;9.88;2.55;;;16.00;99.90;;;;;;5042756;28;20041;-73
2023/09/29 01:51:44;;;;;;;8.65;3.20;;;16.00;99.90;;;;;;5008043;28;20120;-73
2023/09/29 01:54:09;;;;;;;5.75;2.30;;;16.00;99.90;;;;;;5009783;28;20268;-73
2023/09/29 01:56:35;;;;;;;7.32;2.00;;;16.00;99.90;;;;;;5024123;28;20041;-73
2023/09/29 01:59:01;;;;;;;8.63;2.72;;;16.00;99.90;;;;;;5024659;28;20045;-73
2023/09/29 02:01:26;;;;;;;11.25;2.78;;;16.00;99.90;;;;;;5025962;28;20116;-73
2023/09/29 02:03:52;;;;;;;7.65;2.85;;;16.00;99.90;;;;;;5023704;28;20060;-73
2023/09/29 02:06:18;;;;;;;9.05;2.92;;;16.00;99.90;;;;;;5009493;28;20434;-73
2023/09/29 02:08:43;;;;;;;9.15;2.15;;;16.00;99.90;;;;;;5007657;28;20517;-73
2023/09/29 02:11:09;;;;;;;8.55;2.58;;;16.00;99.90;;;;;;5025440;28;20033;-73
2023/09/29 02:13:35;;;;;;;10.20;2.30;;;16.00;99.90;;;;;;5024861;28;20033;-74
2023/09/29 02:16:02;;;;;;;7.70;2.53;;;16.00;99.90;;;;;;5026407;28;20045;-73
2023/09/29 02:18:29;;;;;;;6.75;2.58;;;16.00;99.90;;;;;;5024341;28;20491;-73
2023/09/29 02:20:56;;;;;;;6.43;2.00;;;16.00;99.90;;;;;;5006900;28;20041;-73
2023/09/29 02:23:22;;;;;;;4.30;2.25;;;16.00;99.90;;;;;;5023580;28;20041;-73
2023/09/29 02:25:48;;;;;;;6.43;2.28;;;16.00;99.90;;;;;;5021972;28;20041;-74
2023/09/29 02:28:14;;;;;;;11.73;3.22;;;16.00;99.90;;;;;;5023863;28;20029;-74
2023/09/29 02:30:40;;;;;;;6.93;2.28;;;16.00;99.90;;;;;;5023430;28;20047;-73
2023/09/29 02:33:06;;;;;;;7.63;2.25;;;16.10;99.90;;;;;;5023841;28;20033;-73
2023/09/29 02:35:32;;;;;;;8.70;2.45;;;16.00;99.90;;;;;;5023933;28;20076;-73
2023/09/29 02:37:58;;;;;;;6.40;2.75;;;16.00;99.90;;;;;;5022295;28;20107;-73
2023/09/29 02:40:24;;;;;;;9.40;2.67;;;16.00;99.90;;;;;;5021650;28;20045;-73
2023/09/29 02:42:50;;;;;;;5.43;2.42;;;16.00;99.90;;;;;;5008618;28;20041;-73
2023/09/29 02:45:16;;;;;;;7.70;2.45;;;16.10;99.90;;;;;;5024872;28;20037;-73
2023/09/29 02:47:42;;;;;;;8.57;2.63;;;16.10;99.90;;;;;;5022825;28;20060;-73
2023/09/29 02:50:12;;;;;;;7.57;2.40;;;16.10;99.90;;;;;;5023614;28;20029;-73
2023/09/29 02:52:38;;;;;;;10.02;2.58;;;16.10;99.90;;;;;;5024417;28;20466;-73
2023/09/29 02:55:05;;;;;;;8.07;2.22;;;16.00;99.90;;;;;;5039996;28;20659;-73
2023/09/29 02:57:31;;;;;;;9.23;2.15;;;16.10;99.90;;;;;;5039685;28;20045;-73
2023/09/29 03:00:00;;;;;;;5.88;2.33;;;16.10;99.90;;;;;;5022740;28;20060;-73
2023/09/29 03:02:25;;;;;;;4.65;1.95;;;16.10;99.90;;;;;;5019760;28;20041;-73
2023/09/29 03:04:51;;;;;;;5.90;2.22;;;16.10;99.90;;;;;;5023679;28;20096;-73
2023/09/29 03:07:17;;;;;;;6.47;2.53;;;16.10;99.90;;;;;;5024481;28;20029;-73
2023/09/29 03:09:43;;;;;;;9.88;2.67;;;16.10;99.90;;;;;;5023137;28;20165;-73
2023/09/29 03:12:09;;;;;;;5.20;2.65;;;16.10;99.90;;;;;;5022163;28;20045;-73
2023/09/29 03:14:34;;;;;;;4.35;2.38;;;16.10;99.90;;;;;;5024845;28;20136;-73
2023/09/29 03:17:03;;;;;;;5.85;2.53;;;16.00;99.90;;;;;;5023528;28;20034;-73
2023/09/29 03:19:30;;;;;;;6.43;2.17;;;16.10;99.90;;;;;;5020715;28;20047;-73
2023/09/29 03:21:58;;;;;;;7.55;3.40;;;16.10;99.90;;;;;;5021832;28;20088;-73
2023/09/29 03:24:26;;;;;;;8.90;2.65;;;16.10;99.90;;;;;;5021735;28;20648;-73
2023/09/29 03:26:51;;;;;;;9.20;2.20;;;16.10;99.90;;;;;;5020529;28;20053;-73
2023/09/29 03:29:17;;;;;;;5.30;2.35;;;16.10;99.90;;;;;;5022776;28;20037;-73
2023/09/29 03:31:43;;;;;;;8.50;2.28;;;16.10;99.90;;;;;;5023979;28;20029;-73
2023/09/29 03:34:09;;;;;;;7.03;2.50;;;16.10;99.90;;;;;;5022325;28;20031;-73
2023/09/29 03:36:34;;;;;;;11.80;2.80;;;16.10;99.90;;;;;;5022794;28;20037;-73
2023/09/29 03:39:05;;;;;;;8.60;2.53;;;16.10;99.90;;;;;;5023560;28;20399;-73
2023/09/29 03:41:30;;;;;;;7.13;2.50;;;16.10;99.90;;;;;;5022581;28;20037;-73
2023/09/29 03:43:56;;;;;;;5.72;2.35;;;16.00;99.90;;;;;;5020756;28;20040;-73
2023/09/29 03:46:25;;;;;;;5.20;2.72;;;16.10;99.90;;;;;;5021283;28;20235;-73
2023/09/29 03:48:51;;;;;;;8.20;2.78;;;16.00;99.90;;;;;;5021641;28;20131;-73
2023/09/29 03:51:21;;;;;;;9.00;2.97;;;16.10;99.90;;;;;;5038875;28;20569;-73
2023/09/29 03:53:48;;;;;;;5.60;2.08;;;16.10;99.90;;;;;;5022016;28;20050;-73
2023/09/29 03:56:14;;;;;;;9.48;2.53;;;16.10;99.90;;;;;;5039380;28;20048;-73
2023/09/29 03:58:40;;;;;;;5.55;2.33;;;16.10;99.90;;;;;;5007583;28;20045;-73
2023/09/29 04:01:05;;;;;;;5.82;2.47;;;16.10;99.90;;;;;;5023229;28;20605;-73
2023/09/29 04:03:31;;;;;;;8.85;2.85;;;16.10;99.90;;;;;;5049541;28;20034;-73
2023/09/29 04:05:57;;;;;;;8.55;2.92;;;16.10;99.90;;;;;;5024934;28;20118;-73
2023/09/29 04:08:22;;;;;;;6.95;2.38;;;16.10;99.90;;;;;;5026993;28;20064;-73
2023/09/29 04:10:49;;;;;;;7.30;2.80;;;16.10;99.90;;;;;;5023175;28;20042;-73
2023/09/29 04:13:15;;;;;;;7.25;2.85;;;16.10;99.90;;;;;;5022097;28;20037;-73
2023/09/29 04:15:40;;;;;;;6.47;2.67;;;16.10;99.90;;;;;;5009596;28;20041;-73
2023/09/29 04:18:06;;;;;;;7.20;2.83;;;16.10;99.90;;;;;;5027808;28;20041;-73
2023/09/29 04:20:31;;;;;;;7.82;3.40;;;16.10;99.90;;;;;;5026946;28;20072;-73
2023/09/29 04:22:57;;;;;;;13.20;2.90;;;16.10;99.90;;;;;;5026533;28;20045;-73
2023/09/29 04:25:22;;;;;;;6.72;3.20;;;16.20;99.90;;;;;;5026282;28;20542;-73
2023/09/29 04:27:49;;;;;;;8.15;2.70;;;16.20;99.90;;;;;;5026576;28;20482;-73
2023/09/29 04:30:14;;;;;;;7.20;2.75;;;16.20;99.90;;;;;;5025344;28;20052;-73
2023/09/29 04:32:40;;;;;;;6.15;2.55;;;16.20;99.90;;;;;;5026153;28;20034;-73
2023/09/29 04:35:06;;;;;;;8.45;2.35;;;16.20;99.90;;;;;;5025093;28;20056;-73
2023/09/29 04:37:32;;;;;;;7.53;3.67;;;16.20;99.90;;;;;;5009840;28;20033;-72
2023/09/29 04:39:57;;;;;;;7.93;3.03;;;16.20;99.90;;;;;;5027242;28;20037;-73
2023/09/29 04:42:24;;;;;;;11.93;3.10;;;16.30;99.90;;;;;;5023525;28;20548;-73
2023/09/29 04:44:49;;;;;;;10.35;3.15;;;16.30;99.90;;;;;;5026482;28;20045;-74
2023/09/29 04:47:15;;;;;;;7.82;3.25;;;16.20;99.90;;;;;;5026290;28;20038;-73
2023/09/29 04:49:41;;;;;;;10.48;3.30;;;16.30;99.90;;;;;;5024504;28;20444;-73
2023/09/29 04:52:07;;;;;;;7.15;3.17;;;16.30;99.90;;;;;;5026560;28;20037;-73
2023/09/29 04:54:33;;;;;;;10.68;3.33;;;16.30;99.90;;;;;;5024572;28;20079;-73
2023/09/29 04:56:59;;;;;;;9.13;2.90;;;16.30;99.90;;;;;;5023573;28;20045;-73
2023/09/29 04:59:25;;;;;;;7.88;3.47;;;16.30;99.90;;;;;;5026278;28;20160;-73
2023/09/29 05:01:51;;;;;;;6.65;3.50;;;16.30;99.90;;;;;;5022023;28;20112;-73
2023/09/29 05:04:16;;;;;;;8.10;3.60;;;16.30;99.90;;;;;;5027512;28;20045;-73
2023/09/29 05:06:43;;;;;;;9.15;3.30;;;16.30;99.90;;;;;;5026594;28;20051;-73
2023/09/29 05:09:11;;;;;;;10.48;3.15;;;16.30;99.90;;;;;;5025843;28;20128;-73
2023/09/29 05:11:37;;;;;;;6.78;3.10;;;16.30;99.90;;;;;;5007326;28;20044;-73
2023/09/29 05:14:03;;;;;;;5.53;2.90;;;16.40;99.90;;;;;;5025196;28;20034;-74
2023/09/29 05:16:28;;;;;;;8.85;3.70;;;16.40;99.90;;;;;;5043523;28;20033;-73
2023/09/29 05:18:54;;;;;;;11.55;4.18;;;16.40;99.90;;;;;;5041926;28;20045;-73
2023/09/29 05:21:20;;;;;;;9.23;3.58;;;16.40;99.90;;;;;;5024365;28;20099;-73
2023/09/29 05:23:46;;;;;;;10.13;3.58;;;16.40;99.90;;;;;;5025706;28;20128;-73
2023/09/29 05:26:12;;;;;;;8.20;3.15;;;16.40;99.90;;;;;;5024601;28;20057;-73
2023/09/29 05:28:40;;;;;;;10.63;3.80;;;16.40;99.90;;;;;;5025105;28;20033;-73
2023/09/29 05:31:06;;;;;;;7.47;3.72;;;16.40;99.90;;;;;;5024318;28;20059;-73
2023/09/29 05:33:31;;;;;;;9.70;3.45;;;16.40;99.90;;;;;;5007609;28;20499;-73
2023/09/29 05:35:58;;;;;;;7.25;3.78;;;16.40;99.90;;;;;;5024133;28;20100;-73
2023/09/29 05:38:23;;;;;;;9.27;3.85;;;16.40;99.90;;;;;;5026661;28;20053;-73
2023/09/29 05:40:50;;;;;;;7.10;3.78;;;16.40;99.90;;;;;;5038655;28;20060;-73
2023/09/29 05:43:16;;;;;;;7.22;3.40;;;16.40;99.90;;;;;;5024762;28;20175;-73
2023/09/29 05:45:44;;;;;;;9.25;3.35;;;16.40;99.90;;;;;;5011706;28;20056;-74
2023/09/29 05:48:09;;;;;;;7.97;3.63;;;16.40;99.90;;;;;;5037243;28;20531;-73
2023/09/29 05:50:38;;;;;;;5.00;2.90;;;16.40;99.90;;;;;;5025231;28;20566;-73
2023/09/29 05:53:04;;;;;;;6.20;2.70;;;16.40;99.90;;;;;;5005260;28;20026;-73
2023/09/29 05:55:30;;;;;;;5.22;2.65;;;16.40;99.90;;;;;;5002124;28;20115;-73
2023/09/29 05:57:56;;;;;;;7.95;2.72;;;16.50;99.90;;;;;;5019525;28;20114;-73
2023/09/29 06:00:22;;;;;;;6.45;2.58;;;16.40;99.90;;;;;;5022755;28;20087;-74
2023/09/29 06:02:48;;;;;;;6.43;2.80;;;16.40;99.90;;;;;;5039068;28;20580;-73
2023/09/29 06:05:14;;;;;;;8.60;3.30;;;16.40;99.90;;;;;;5016346;28;20120;-74
2023/09/29 06:07:40;;;;;;;6.53;3.10;;;16.50;99.90;;;;;;5019066;28;20691;-74
2023/09/29 06:10:06;;;;;;;8.18;3.35;;;16.50;99.90;;;;;;5022902;28;20052;-74
2023/09/29 06:12:32;;;;;;;7.00;2.78;;;16.50;99.90;;;;;;5023626;28;20449;-74
2023/09/29 06:14:58;;;;;;;6.65;3.10;;;16.50;99.90;;;;;;5022469;28;20057;-74
2023/09/29 06:17:24;;;;;;;5.47;2.83;;;16.50;99.90;;;;;;5022294;28;20045;-74
2023/09/29 06:19:50;;;;;;;10.57;2.83;;;16.50;99.90;;;;;;5035254;28;20072;-74
2023/09/29 06:22:16;;;;;;;5.15;2.88;;;16.40;99.90;;;;;;5005548;28;20065;-74
2023/09/29 06:24:43;;;;;;;9.00;3.10;;;16.50;99.90;;;;;;5023321;28;20081;-72
2023/09/29 06:27:09;;;;;;;6.15;2.88;;;16.50;99.90;;;;;;5038429;28;20041;-73
2023/09/29 06:29:35;;;;;;;6.50;2.53;;;16.50;99.90;;;;;;5006655;28;20033;-73
2023/09/29 06:32:01;;;;;;;7.50;2.90;;;16.50;99.90;;;;;;5022513;28;20048;-73
2023/09/29 06:34:26;;;;;;;5.82;2.55;;;16.60;99.90;;;;;;5002659;28;20059;-72
2023/09/29 06:36:52;;;;;;;10.50;2.97;;;16.50;99.90;;;;;;5024508;28;20041;-72
2023/09/29 06:39:18;;;;;;;6.15;2.72;;;16.60;99.90;;;;;;5007478;28;20033;-72
2023/09/29 06:41:43;;;;;;;3.80;1.63;;;16.60;99.90;;;;;;5018317;28;20067;-77
2023/09/29 06:44:09;;;;;;;7.13;2.80;;;16.60;99.90;;;;;;5023044;28;20037;-72
2023/09/29 06:46:34;;;;;;;5.25;2.03;;;16.60;99.90;;;;;;5038348;28;20046;-71
2023/09/29 06:49:03;;;;;;;6.03;2.10;;;16.60;99.90;;;;;;5022148;28;20057;-72
2023/09/29 06:51:29;;;;;;;6.03;2.45;;;16.60;99.90;;;;;;5039556;28;20030;-71
2023/09/29 06:53:54;;;;;;;5.45;1.77;;;16.60;99.90;;;;;;5022666;28;20095;-72
2023/09/29 06:56:20;;;;;;;5.82;2.28;;;16.60;99.90;;;;;;5033426;28;20080;-72
2023/09/29 06:58:46;;;;;;;4.75;1.92;;;16.60;99.90;;;;;;5023135;28;20033;-72
2023/09/29 07:01:13;;;;;;;6.32;2.33;;;16.60;99.90;;;;;;5020605;28;20069;-71
2023/09/29 07:03:39;;;;;;;5.22;1.95;;;16.60;99.90;;;;;;5007503;28;20049;-72
2023/09/29 07:06:04;;;;;;;6.07;2.13;;;16.60;99.90;;;;;;5023701;28;20490;-71
2023/09/29 07:08:31;;;;;;;7.82;2.83;;;16.70;99.90;;;;;;5006136;28;20099;-72
2023/09/29 07:10:57;;;;;;;6.40;2.00;;;16.70;99.90;;;;;;5024410;28;20394;-74
2023/09/29 07:13:22;;;;;;;4.70;1.90;;;16.70;99.90;;;;;;5020063;28;20049;-74
2023/09/29 07:15:48;;;;;;;3.50;1.75;;;16.80;99.90;;;;;;5022078;28;20042;-73
2023/09/29 07:18:16;;;;;;;5.20;2.00;;;16.70;99.90;;;;;;5026164;28;20116;-73
2023/09/29 07:20:43;;;;;;;4.85;2.08;;;16.80;99.90;;;;;;5041888;28;20037;-73
2023/09/29 07:23:08;;;;;;;5.47;2.38;;;16.80;99.90;;;;;;5020135;28;20407;-72
2023/09/29 07:25:37;;;;;;;4.95;1.77;;;16.90;99.90;;;;;;5023182;28;20041;-73
2023/09/29 07:28:14;;;;;;;5.50;1.90;;;16.90;99.90;;;;;;5024890;28;20033;-73
2023/09/29 07:30:43;;;;;;;3.28;2.00;;;16.90;99.90;;;;;;5026734;28;20501;-73
2023/09/29 07:33:09;;;;;;;5.65;2.08;;;17.00;99.90;;;;;;5025433;28;20065;-73
2023/09/29 07:35:36;;;;;;;3.33;1.75;;;17.00;99.90;;;;;;5044884;28;20522;-73
2023/09/29 07:38:02;;;;;;;5.43;1.92;;;17.00;99.90;;;;;;5048166;28;20037;-73
2023/09/29 07:40:27;;;;;;;5.32;2.00;;;17.00;99.90;;;;;;5047232;28;20041;-73
2023/09/29 07:42:53;;;;;;;5.68;2.00;;;17.10;99.90;;;;;;5037302;28;20099;-73
2023/09/29 07:45:20;;;;;;;2.75;1.48;;;17.10;99.90;;;;;;5042321;28;20063;-73
2023/09/29 07:47:45;;;;;;;4.45;2.08;;;17.10;99.90;;;;;;5010721;28;20121;-73
2023/09/29 07:50:11;;;;;;;4.15;1.67;;;17.10;99.90;;;;;;5025931;28;20120;-73
2023/09/29 07:52:38;;;;;;;3.05;1.85;;;17.20;99.90;;;;;;5010484;28;20454;-73
2023/09/29 07:55:06;;;;;;;3.65;1.60;;;17.10;99.90;;;;;;5025309;28;20372;-73
2023/09/29 07:57:31;;;;;;;6.75;2.10;;;17.20;99.90;;;;;;5011578;28;20529;-73
2023/09/29 07:59:57;;;;;;;3.97;1.75;;;17.20;99.90;;;;;;5030742;28;20049;-73
2023/09/29 08:02:24;;;;;;;4.53;1.90;;;17.30;99.90;;;;;;5040610;28;20060;-74
2023/09/29 08:04:50;;;;;;;3.63;1.65;;;17.40;99.90;;;;;;5023414;28;20044;-73
2023/09/29 08:07:15;;;;;;;2.90;1.65;;;17.40;99.90;;;;;;5022339;28;20033;-74
2023/09/29 08:09:41;;;;;;;7.18;2.65;;;17.50;99.90;;;;;;5008130;28;20038;-74
2023/09/29 08:12:06;;;;;;;5.00;2.10;;;17.50;99.90;;;;;;5026633;28;20447;-73
2023/09/29 08:14:32;;;;;;;4.00;1.98;;;17.60;99.90;;;;;;5018768;28;20045;-74
2023/09/29 08:16:58;;;;;;;4.22;1.70;;;17.60;99.90;;;;;;5023730;28;20045;-74
2023/09/29 08:19:23;;;;;;;4.00;1.98;;;17.60;99.90;;;;;;5024950;28;20127;-73
2023/09/29 08:21:49;;;;;;;3.15;1.70;;;17.60;99.90;;;;;;5008849;28;20051;-73
2023/09/29 08:24:15;;;;;;;4.57;1.88;;;17.70;99.90;;;;;;5022527;28;20045;-73
2023/09/29 08:26:41;;;;;;;3.97;1.70;;;17.70;99.90;;;;;;5024921;28;20049;-72
2023/09/29 08:29:09;;;;;;;4.40;1.95;;;17.70;99.90;;;;;;5026561;28;20510;-73
2023/09/29 08:31:35;;;;;;;2.70;1.63;;;17.80;99.90;;;;;;5023969;28;20088;-73
2023/09/29 08:34:01;;;;;;;4.55;2.08;;;17.80;99.90;;;;;;5025179;28;20037;-74
2023/09/29 08:36:26;;;;;;;4.22;1.98;;;17.90;99.90;;;;;;5024690;28;20041;-73
2023/09/29 08:38:52;;;;;;;3.08;1.45;;;17.90;99.90;;;;;;5027001;28;20510;-73
2023/09/29 08:41:24;;;;;;;4.38;1.90;;;17.90;99.90;;;;;;5007617;28;20041;-73
2023/09/29 08:43:51;;;;;;;3.90;1.90;;;17.90;99.90;;;;;;5026708;28;20344;-73
2023/09/29 08:46:19;;;;;;;3.95;2.08;;;17.90;99.90;;;;;;5025715;28;20156;-73
2023/09/29 08:48:48;;;;;;;4.00;1.70;;;18.00;99.90;;;;;;5024907;28;20110;-73
2023/09/29 08:51:15;;;;;;;3.60;1.40;;;18.00;99.90;;;;;;5031601;28;20559;-74
2023/09/29 08:53:44;;;;;;;3.55;1.75;;;18.10;99.90;;;;;;5029572;28;20052;-73
2023/09/29 08:56:12;;;;;;;3.90;1.77;;;18.20;99.90;;;;;;5023687;28;20041;-74
2023/09/29 08:58:38;;;;;;;4.03;1.55;;;18.20;99.90;;;;;;5025865;28;20050;-73
2023/09/29 09:01:05;;;;;;;4.82;1.90;;;18.30;99.90;;;;;;5022826;28;20042;-73
2023/09/29 09:03:31;;;;;;;2.80;1.70;;;18.30;99.90;;;;;;5030074;28;20403;-73
2023/09/29 09:05:57;;;;;;;2.95;1.48;;;18.40;99.90;;;;;;5026487;28;20048;-73
2023/09/29 09:08:24;;;;;;;3.97;1.92;;;18.50;99.90;;;;;;5024227;28;20049;-74
2023/09/29 09:11:00;;;;;;;5.13;1.80;;;18.50;99.90;;;;;;5020690;28;20128;-74
2023/09/29 09:13:26;;;;;;;3.38;1.73;;;18.60;99.90;;;;;;5016001;28;20029;-73
2023/09/29 09:15:57;;;;;;;3.05;1.50;;;18.60;99.90;;;;;;5023144;28;20164;-74
2023/09/29 09:18:24;;;;;;;2.78;1.30;;;18.70;99.90;;;;;;5020165;28;20080;-73
2023/09/29 09:20:52;;;;;;;4.55;1.60;;;18.80;99.90;;;;;;5037973;28;21350;-75
2023/09/29 09:23:18;;;;;;;4.63;1.65;;;18.90;99.90;;;;;;4997854;28;20046;-76
2023/09/29 09:25:43;;;;;;;3.90;1.90;;;18.90;99.90;;;;;;5023186;28;20048;-75
2023/09/29 09:28:16;;;;;;;4.55;1.77;;;19.00;99.90;;;;;;5005835;28;20044;-76
2023/09/29 09:30:42;;;;;;;4.40;1.60;;;19.00;99.90;;;;;;5022893;28;20045;-76
2023/09/29 09:33:22;;;;;;;3.20;1.63;;;19.10;99.90;;;;;;5011598;28;20060;-75
2023/09/29 09:35:49;;;;;;;2.72;1.30;;;19.10;99.90;;;;;;5010384;28;20041;-75
2023/09/29 09:38:15;;;;;;;3.20;1.48;;;19.20;99.90;;;;;;5023048;28;20045;-85
2023/09/29 09:40:43;;;;;;;4.32;1.58;;;19.10;99.90;;;;;;5041071;28;20065;-83
2023/09/29 09:43:10;;;;;;;4.18;1.80;;;19.10;99.90;;;;;;5044073;28;20053;-76
2023/09/29 09:45:39;;;;;;;3.33;1.50;;;19.10;99.90;;;;;;5025902;28;20379;-73
2023/09/29 09:48:07;;;;;;;2.63;1.65;;;19.20;99.90;;;;;;5023266;28;20041;-73
2023/09/29 09:50:36;;;;;;;3.90;1.40;;;19.20;99.90;;;;;;5036219;28;20490;-73
2023/09/29 09:53:05;;;;;;;5.30;1.50;;;19.20;99.90;;;;;;5022811;28;20042;-74
2023/09/29 09:55:45;;;;;;;3.85;1.60;;;19.20;99.90;;;;;;5023617;28;20470;-74
2023/09/29 09:58:15;;;;;;;2.80;1.50;;;19.30;99.90;;;;;;5021482;28;20051;-73
2023/09/29 10:00:42;;;;;;;4.38;1.40;;;19.30;99.90;;;;;;5015988;28;20046;-73
2023/09/29 10:03:11;;;;;;;3.33;1.42;;;19.30;99.90;;;;;;5020597;28;20112;-74
2023/09/29 10:05:42;;;;;;;2.72;1.48;;;19.40;99.90;;;;;;5022318;28;20033;-74
2023/09/29 10:08:10;;;;;;;2.72;1.45;;;19.40;99.90;;;;;;5023622;28;20033;-75
2023/09/29 10:10:42;;;;;;;3.08;1.67;;;19.40;99.90;;;;;;5007177;28;20033;-74
2023/09/29 10:13:12;;;;;;;5.75;1.83;;;19.40;99.90;;;;;;5006098;28;20049;-74
2023/09/29 10:15:39;;;;;;;3.70;1.50;;;19.50;99.90;;;;;;5023014;28;20041;-74
2023/09/29 10:18:20;;;;;;;3.95;1.70;;;19.50;99.90;;;;;;5025580;28;20037;-74
2023/09/29 10:20:54;;;;;;;2.90;1.25;;;19.50;99.90;;;;;;5024741;28;20030;-73
2023/09/29 10:23:20;;;;;;;3.45;1.52;;;19.50;99.90;;;;;;5014931;28;20030;-73
2023/09/29 10:25:58;;;;;;;3.00;1.80;;;19.50;99.90;;;;;;5023245;28;20044;-73
2023/09/29 10:28:34;;;;;;;3.17;1.38;;;19.50;99.90;;;;;;5025371;28;20025;-73
2023/09/29 10:31:13;;;;;;;4.05;1.52;;;19.50;99.90;;;;;;5005003;28;20273;-74
2023/09/29 10:33:54;;;;;;;3.25;1.67;;;19.50;99.90;;;;;;5021820;28;20387;-73
2023/09/29 10:36:24;;;;;;;2.83;1.25;;;19.50;99.90;;;;;;5007656;28;20042;-74
2023/09/29 10:38:50;;;;;;;4.13;1.45;;;19.50;99.90;;;;;;5024712;28;20045;-74
2023/09/29 10:41:18;;;;;;;3.85;1.80;;;19.40;99.90;;;;;;5003697;28;20647;-73
2023/09/29 10:43:48;;;;;;;3.45;1.52;;;19.40;99.90;;;;;;5022134;28;20076;-73
2023/09/29 10:46:20;;;;;;;3.47;1.65;;;19.40;99.90;;;;;;5023431;28;20051;-73
2023/09/29 10:48:51;;;;;;;4.47;1.63;;;19.30;99.90;;;;;;5025126;28;20041;-73
2023/09/29 10:51:22;;;;;;;3.97;1.42;;;19.30;99.90;;;;;;5021976;28;20056;-73
2023/09/29 10:53:47;;;;;;;3.05;1.65;;;19.30;99.90;;;;;;5021702;28;20038;-73
2023/09/29 10:56:20;;;;;;;3.90;1.80;;;19.30;99.90;;;;;;5023679;28;20534;-74
2023/09/29 10:58:45;;;;;;;3.70;1.67;;;19.20;99.90;;;;;;5007620;28;20510;-73
2023/09/29 11:01:17;;;;;;;3.80;1.83;;;19.20;99.90;;;;;;5021903;28;20120;-74
2023/09/29 11:03:43;;;;;;;3.60;1.63;;;19.20;99.90;;;;;;5025033;28;20045;-74
2023/09/29 11:06:16;;;;;;;5.05;2.00;;;19.20;99.90;;;;;;5023498;28;20041;-73
2023/09/29 11:08:45;;;;;;;3.78;1.63;;;19.20;99.90;;;;;;5019941;28;20033;-73
2023/09/29 11:11:11;;;;;;;2.85;1.45;;;19.20;99.90;;;;;;5021679;28;20534;-74
2023/09/29 11:13:37;;;;;;;4.93;2.00;;;19.20;99.90;;;;;;5039941;28;20060;-74
2023/09/29 11:16:13;;;;;;;3.42;1.67;;;19.20;99.90;;;;;;5024350;28;20037;-73
2023/09/29 11:18:39;;;;;;;3.13;1.65;;;19.30;99.90;;;;;;5024230;28;20040;-74
2023/09/29 11:21:13;;;;;;;3.97;1.92;;;19.40;99.90;;;;;;5006283;28;20049;-74
2023/09/29 11:23:48;;;;;;;4.53;2.05;;;19.40;99.90;;;;;;5022207;28;20445;-73
2023/09/29 11:26:15;;;;;;;4.72;1.77;;;19.40;99.90;;;;;;5023779;28;20077;-74
2023/09/29 11:28:47;;;;;;;3.70;1.70;;;19.40;99.90;;;;;;5021734;28;20041;-73
2023/09/29 11:31:15;;;;;;;6.15;1.95;;;19.50;99.90;;;;;;5008399;28;20045;-72
2023/09/29 11:33:41;;;;;;;3.58;1.45;;;19.50;99.90;;;;;;5016998;28;20045;-73
2023/09/29 11:36:14;;;;;;;3.17;1.42;;;19.40;99.90;;;;;;5025038;28;20037;-73
2023/09/29 11:38:40;;;;;;;6.10;1.92;;;19.40;99.90;;;;;;5021411;28;20057;-73
2023/09/29 11:41:05;;;;;;;3.55;1.83;;;19.40;99.90;;;;;;5023269;28;20034;-73
2023/09/29 11:43:34;;;;;;;4.65;2.00;;;19.40;99.90;;;;;;5021231;28;20049;-73
2023/09/29 11:46:00;;;;;;;2.72;1.73;;;19.40;99.90;;;;;;5022750;28;20045;-73
2023/09/29 11:48:27;;;;;;;4.00;2.20;;;19.40;99.90;;;;;;5023514;28;20041;-73
2023/09/29 11:50:53;;;;;;;4.38;1.67;;;19.40;99.90;;;;;;5020709;28;20399;-73
2023/09/29 11:53:20;;;;;;;3.85;2.08;;;19.40;99.90;;;;;;5019366;28;20243;-73
2023/09/29 11:55:45;;;;;;;4.65;2.25;;;19.40;99.90;;;;;;5014980;28;21924;-73
2023/09/29 11:58:11;;;;;;;3.90;2.20;;;19.40;99.90;;;;;;5022548;28;20038;-74
2023/09/29 12:00:37;;;;;;;4.53;2.40;;;19.40;99.90;;;;;;5017662;28;20127;-74
2023/09/29 12:03:05;;;;;;;6.53;2.05;;;19.40;99.90;;;;;;5021730;28;21983;-74
2023/09/29 12:05:32;;;;;;;5.70;2.55;;;19.40;99.90;;;;;;5038290;28;20045;-74
2023/09/29 12:07:57;;;;;;;3.72;1.83;;;19.40;99.90;;;;;;5022763;28;20306;-74
2023/09/29 12:10:23;;;;;;;5.32;2.13;;;19.40;99.90;;;;;;5015311;28;20177;-73
2023/09/29 12:12:48;;;;;;;5.35;2.20;;;19.50;99.90;;;;;;5023125;28;20465;-73
2023/09/29 12:15:15;;;;;;;3.10;1.92;;;19.50;99.90;;;;;;5010573;28;20088;-73
2023/09/29 12:17:41;;;;;;;5.40;2.33;;;19.60;99.90;;;;;;5024345;28;20128;-73
2023/09/29 12:20:09;;;;;;;5.15;2.15;;;19.70;99.90;;;;;;5023200;28;20136;-73
2023/09/29 12:22:35;;;;;;;4.93;2.40;;;19.70;99.90;;;;;;5028117;28;20045;-73
2023/09/29 12:25:01;;;;;;;5.97;2.10;;;19.70;99.90;;;;;;5017683;28;20518;-73
2023/09/29 12:27:26;;;;;;;4.53;2.13;;;19.70;99.90;;;;;;5007171;28;20103;-73
2023/09/29 12:29:52;;;;;;;3.78;1.70;;;19.70;99.90;;;;;;5013385;28;20048;-73
2023/09/29 12:32:18;;;;;;;5.00;1.98;;;19.70;99.90;;;;;;5011249;28;20531;-73
2023/09/29 12:34:43;;;;;;;4.90;2.38;;;19.70;99.90;;;;;;5026197;28;20048;-73
2023/09/29 12:37:09;;;;;;;4.32;2.40;;;19.70;99.90;;;;;;5013730;28;20041;-73
2023/09/29 12:39:34;;;;;;;4.35;2.20;;;19.70;99.90;;;;;;5031539;28;20098;-73
2023/09/29 12:42:00;;;;;;;4.80;2.20;;;19.70;99.90;;;;;;5026720;28;20048;-73
2023/09/29 12:44:26;;;;;;;4.07;2.17;;;19.60;99.90;;;;;;5031392;28;20128;-73